createdAt,value
2019-02-20T00:00:27.297Z,98334.02
2019-02-20T00:02:57.703Z,98333.78
2019-02-20T00:05:29.682Z,98337.34
2019-02-20T00:08:00.272Z,98335.96
2019-02-20T00:10:32.621Z,98339.30
2019-02-20T00:13:05.989Z,98335.49
2019-02-20T00:15:38.641Z,98336.31
2019-02-20T00:20:44.813Z,98341.78
2019-02-20T00:23:16.752Z,98341.25
2019-02-20T00:25:45.813Z,98347.29
2019-02-20T00:28:16.660Z,98350.36
2019-02-20T00:30:46.312Z,98342.95
2019-02-20T00:33:17.678Z,98342.46
2019-02-20T00:35:47.266Z,98345.72
2019-02-20T00:38:17.316Z,98344.66
2019-02-20T00:40:47.333Z,98341.11
2019-02-20T00:43:17.765Z,98343.87
2019-02-20T00:45:53.135Z,98344.45
2019-02-20T00:48:25.582Z,98341.97
2019-02-20T00:50:57.506Z,98343.92
2019-02-20T00:53:28.967Z,98349.66
2019-02-20T00:55:59.378Z,98348.80
2019-02-20T00:58:29.296Z,98353.45
2019-02-20T01:00:59.825Z,98349.38
2019-02-20T01:03:29.572Z,98353.25
2019-02-20T01:06:00.930Z,98356.31
2019-02-20T01:08:31.722Z,98356.55
2019-02-20T01:11:08.051Z,98354.04
2019-02-20T01:13:38.814Z,98354.08
2019-02-20T01:16:12.157Z,98348.34
2019-02-20T01:18:43.283Z,98358.50
2019-02-20T01:21:20.014Z,98355.77
2019-02-20T01:23:50.787Z,98360.36
2019-02-20T01:26:20.642Z,98359.78
2019-02-20T01:28:51.319Z,98353.30
2019-02-20T01:31:21.844Z,98354.70
2019-02-20T01:33:51.501Z,98352.55
2019-02-20T01:36:22.288Z,98345.48
2019-02-20T01:38:53.685Z,98355.02
2019-02-20T01:41:23.394Z,98356.67
2019-02-20T01:43:54.782Z,98354.80
2019-02-20T01:46:25.192Z,98351.83
2019-02-20T01:48:55.439Z,98349.92
2019-02-20T01:51:27.328Z,98352.93
2019-02-20T01:53:57.678Z,98348.02
2019-02-20T01:56:28.292Z,98349.13
2019-02-20T01:59:00.918Z,98341.50
2019-02-20T02:01:33.391Z,98348.63
2019-02-20T02:04:04.361Z,98351.06
2019-02-20T02:06:34.382Z,98349.16
2019-02-20T02:09:06.618Z,98352.67
2019-02-20T02:11:37.197Z,98351.60
2019-02-20T02:14:07.630Z,98350.84
2019-02-20T02:16:38.222Z,98344.83
2019-02-20T02:19:09.454Z,98347.55
2019-02-20T02:21:39.568Z,98346.72
2019-02-20T02:24:10.798Z,98342.36
2019-02-20T02:26:43.279Z,98348.34
2019-02-20T02:29:14.615Z,98343.49
2019-02-20T02:31:47.367Z,98334.50
2019-02-20T02:34:22.067Z,98338.58
2019-02-20T02:36:53.449Z,98336.43
2019-02-20T02:39:24.813Z,98326.92
2019-02-20T02:41:54.478Z,98334.34
2019-02-20T02:44:24.310Z,98334.66
2019-02-20T02:46:55.694Z,98341.74
2019-02-20T02:49:26.549Z,98339.56
2019-02-20T02:51:57.020Z,98342.58
2019-02-20T02:54:26.286Z,98335.24
2019-02-20T02:56:57.662Z,98334.67
2019-02-20T02:59:28.127Z,98332.24
2019-02-20T03:01:58.535Z,98336.32
2019-02-20T03:04:28.896Z,98337.92
2019-02-20T03:06:59.305Z,98343.38
2019-02-20T03:09:27.825Z,98344.21
2019-02-20T03:11:57.663Z,98349.38
2019-02-20T03:14:28.501Z,98344.76
2019-02-20T03:16:58.964Z,98346.69
2019-02-20T03:19:29.736Z,98341.78
2019-02-20T03:22:00.487Z,98341.78
2019-02-20T03:24:30.351Z,98346.67
2019-02-20T03:29:36.833Z,98354.01
2019-02-20T03:32:09.973Z,98356.19
2019-02-20T03:34:40.352Z,98353.47
2019-02-20T03:37:09.449Z,98356.45
2019-02-20T03:39:38.290Z,98360.27
2019-02-20T03:42:07.370Z,98361.61
2019-02-20T03:44:35.638Z,98359.43
2019-02-20T03:49:39.703Z,98358.34
2019-02-20T03:52:12.228Z,98370.86
2019-02-20T03:54:41.999Z,98370.85
2019-02-20T03:57:11.699Z,98371.09
2019-02-20T03:59:43.024Z,98368.09
2019-02-20T04:02:13.043Z,98381.16
2019-02-20T04:04:44.345Z,98378.72
2019-02-20T04:07:13.882Z,98376.29
2019-02-20T04:09:43.971Z,98370.56
2019-02-20T04:12:17.395Z,98371.92
2019-02-20T04:14:47.183Z,98376.56
2019-02-20T04:17:17.012Z,98377.92
2019-02-20T04:19:48.368Z,98384.45
2019-02-20T04:22:20.335Z,98386.91
2019-02-20T04:24:49.999Z,98387.17
2019-02-20T04:27:21.331Z,98387.73
2019-02-20T04:29:52.091Z,98385.28
2019-02-20T04:32:23.462Z,98388.27
2019-02-20T04:34:54.222Z,98391.53
2019-02-20T04:37:27.063Z,98391.25
2019-02-20T04:39:57.710Z,98388.24
2019-02-20T04:42:28.401Z,98384.45
2019-02-20T04:44:58.688Z,98387.72
2019-02-20T04:47:29.298Z,98387.17
2019-02-20T04:49:59.184Z,98386.89
2019-02-20T04:52:29.626Z,98392.34
2019-02-20T04:54:59.987Z,98390.42
2019-02-20T04:57:33.366Z,98395.05
2019-02-20T05:00:04.114Z,98392.56
2019-02-20T05:02:34.798Z,98399.36
2019-02-20T05:05:11.367Z,98401.52
2019-02-20T05:07:42.920Z,98399.63
2019-02-20T05:10:14.125Z,98403.97
2019-02-20T05:12:45.551Z,98399.91
2019-02-20T05:15:15.906Z,98404.82
2019-02-20T05:17:47.584Z,98407.56
2019-02-20T05:20:15.869Z,98398.05
2019-02-20T05:22:44.140Z,98403.50
2019-02-20T05:25:14.963Z,98402.95
2019-02-20T05:27:44.815Z,98400.77
2019-02-20T05:30:14.442Z,98406.21
2019-02-20T05:32:47.696Z,98407.03
2019-02-20T05:35:18.955Z,98410.28
2019-02-20T05:37:50.826Z,98411.11
2019-02-20T05:40:22.158Z,98417.91
2019-02-20T05:42:52.820Z,98418.73
2019-02-20T05:45:24.183Z,98417.08
2019-02-20T05:47:55.078Z,98419.79
2019-02-20T05:50:26.286Z,98420.34
2019-02-20T05:52:56.850Z,98418.45
2019-02-20T05:55:28.243Z,98422.80
2019-02-20T05:58:00.308Z,98419.24
2019-02-20T06:00:31.060Z,98415.71
2019-02-20T06:03:01.525Z,98423.61
2019-02-20T06:05:32.277Z,98423.08
2019-02-20T06:08:03.028Z,98431.77
2019-02-20T06:10:33.839Z,98434.48
2019-02-20T06:13:05.239Z,98442.89
2019-02-20T06:15:36.721Z,98431.21
2019-02-20T06:18:07.016Z,98431.21
2019-02-20T06:20:38.486Z,98453.80
2019-02-20T06:23:09.283Z,98461.11
2019-02-20T06:25:40.600Z,98455.15
2019-02-20T06:28:11.218Z,98450.25
2019-02-20T06:30:40.237Z,98456.50
2019-02-20T06:33:10.802Z,98462.23
2019-02-20T06:35:40.668Z,98457.03
2019-02-20T06:38:11.747Z,98465.45
2019-02-20T06:40:43.318Z,98460.03
2019-02-20T06:43:13.126Z,98474.14
2019-02-20T06:45:43.013Z,98473.07
2019-02-20T06:48:11.544Z,98473.59
2019-02-20T06:50:41.823Z,98474.95
2019-02-20T06:53:13.238Z,98482.03
2019-02-20T06:55:47.067Z,98485.82
2019-02-20T06:58:17.104Z,98491.24
2019-02-20T07:00:47.720Z,98483.66
2019-02-20T07:03:18.121Z,98492.36
2019-02-20T07:05:49.183Z,98492.11
2019-02-20T07:08:33.070Z,98487.72
2019-02-20T07:11:19.741Z,98485.02
2019-02-20T07:13:58.800Z,98494.27
2019-02-20T07:16:32.067Z,98492.06
2019-02-20T07:19:08.607Z,98502.67
2019-02-20T07:22:04.315Z,98502.70
2019-02-20T07:24:42.303Z,98507.32
2019-02-20T07:27:18.483Z,98481.75
2019-02-20T07:30:01.564Z,98509.76
2019-02-20T07:32:33.961Z,98515.20
2019-02-20T07:35:08.682Z,98517.34
2019-02-20T07:37:38.671Z,98522.81
2019-02-20T07:42:46.638Z,98519.77
2019-02-20T07:45:16.689Z,98528.00
2019-02-20T07:47:46.670Z,98524.94
2019-02-20T07:50:16.585Z,98529.57
2019-02-20T07:52:46.901Z,98533.42
2019-02-20T07:55:18.353Z,98539.14
2019-02-20T07:57:49.267Z,98538.11
2019-02-20T08:00:23.727Z,98543.84
2019-02-20T08:02:55.077Z,98547.35
2019-02-20T08:05:25.746Z,98544.91
2019-02-20T08:07:57.074Z,98540.55
2019-02-20T08:10:26.752Z,98545.98
2019-02-20T08:12:58.067Z,98541.35
2019-02-20T08:15:28.689Z,98545.13
2019-02-20T08:17:57.770Z,98548.71
2019-02-20T08:20:36.599Z,98541.10
2019-02-20T08:23:06.980Z,98544.61
2019-02-20T08:25:38.469Z,98551.13
2019-02-20T08:28:10.053Z,98564.66
2019-02-20T08:30:42.648Z,98566.61
2019-02-20T08:33:12.624Z,98573.98
2019-02-20T08:35:42.639Z,98575.09
2019-02-20T08:40:48.030Z,98582.66
2019-02-20T08:43:18.062Z,98577.23
2019-02-20T08:45:48.625Z,98579.34
2019-02-20T08:48:20.024Z,98582.86
2019-02-20T08:50:50.099Z,98588.39
2019-02-20T08:53:22.188Z,98587.95
2019-02-20T08:55:52.142Z,98584.69
2019-02-20T08:58:22.690Z,98579.88
2019-02-20T09:00:52.688Z,98589.38
2019-02-20T09:03:22.433Z,98586.84
2019-02-20T09:05:54.900Z,98591.44
2019-02-20T09:08:25.298Z,98591.66
2019-02-20T09:10:56.727Z,98595.47
2019-02-20T09:13:28.151Z,98599.63
2019-02-20T09:15:57.955Z,98596.22
2019-02-20T09:18:28.393Z,98600.09
2019-02-20T09:20:59.245Z,98595.11
2019-02-20T09:23:30.073Z,98593.49
2019-02-20T09:26:00.849Z,98605.36
2019-02-20T09:28:32.275Z,98602.42
2019-02-20T09:31:03.703Z,98610.94
2019-02-20T09:33:35.153Z,98607.97
2019-02-20T09:36:05.902Z,98610.19
2019-02-20T09:38:35.573Z,98617.59
2019-02-20T09:41:08.327Z,98607.21
2019-02-20T09:43:37.382Z,98613.92
2019-02-20T09:46:07.701Z,98614.87
2019-02-20T09:48:41.207Z,98611.83
2019-02-20T09:51:11.662Z,98615.59
2019-02-20T09:53:41.311Z,98613.68
2019-02-20T09:56:12.496Z,98620.09
2019-02-20T09:58:43.765Z,98614.47
2019-02-20T10:01:14.133Z,98608.81
2019-02-20T10:03:44.708Z,98607.33
2019-02-20T10:06:17.007Z,98614.92
2019-02-20T10:08:46.613Z,98619.73
2019-02-20T10:11:19.834Z,98618.52
2019-02-20T10:13:52.193Z,98617.91
2019-02-20T10:16:22.504Z,98612.61
2019-02-20T10:18:53.776Z,98620.29
2019-02-20T10:21:24.112Z,98625.08
2019-02-20T10:23:55.523Z,98625.95
2019-02-20T10:26:28.086Z,98621.30
2019-02-20T10:28:59.600Z,98618.77
2019-02-20T10:31:32.813Z,98622.64
2019-02-20T10:34:06.837Z,98620.30
2019-02-20T10:36:37.224Z,98613.87
2019-02-20T10:39:08.104Z,98613.73
2019-02-20T10:41:38.772Z,98621.22
2019-02-20T10:44:08.648Z,98626.63
2019-02-20T10:46:38.770Z,98619.91
2019-02-20T10:49:15.795Z,98624.72
2019-02-20T10:51:45.831Z,98618.14
2019-02-20T10:54:15.518Z,98624.73
2019-02-20T10:56:44.574Z,98584.36
2019-02-20T10:59:16.784Z,98584.36
2019-02-20T11:01:46.576Z,98612.75
2019-02-20T11:04:17.906Z,98624.41
2019-02-20T11:06:47.987Z,98625.56
2019-02-20T11:09:19.419Z,98620.71
2019-02-20T11:11:49.066Z,98620.73
2019-02-20T11:14:18.891Z,98620.32
2019-02-20T11:16:48.695Z,98624.70
2019-02-20T11:19:18.273Z,98633.11
2019-02-20T11:21:46.551Z,98621.76
2019-02-20T11:24:14.803Z,98622.59
2019-02-20T11:26:54.051Z,98610.65
2019-02-20T11:29:16.863Z,98613.55
2019-02-20T11:31:46.495Z,98606.98
2019-02-20T11:34:16.330Z,98606.78
2019-02-20T11:36:49.360Z,98597.65
2019-02-20T11:39:18.544Z,98590.11
2019-02-20T11:41:47.625Z,98598.73
2019-02-20T11:44:20.959Z,98591.16
2019-02-20T11:46:53.265Z,98595.79
2019-02-20T11:49:24.506Z,98598.36
2019-02-20T11:51:54.307Z,98595.07
2019-02-20T11:54:24.610Z,98590.47
2019-02-20T11:56:52.890Z,98588.86
2019-02-20T11:59:23.734Z,98594.20
2019-02-20T12:01:54.930Z,98593.16
2019-02-20T12:04:25.678Z,98589.20
2019-02-20T12:06:55.424Z,98587.20
2019-02-20T12:09:26.836Z,98587.36
2019-02-20T12:11:56.510Z,98589.13
2019-02-20T12:14:25.631Z,98581.77
2019-02-20T12:16:57.106Z,98584.48
2019-02-20T12:19:29.417Z,98583.98
2019-02-20T12:22:00.752Z,98584.86
2019-02-20T12:24:30.592Z,98587.80
2019-02-20T12:27:01.934Z,98585.78
2019-02-20T12:29:33.262Z,98562.97
2019-02-20T12:34:38.606Z,98576.77
2019-02-20T12:37:11.368Z,98579.68
2019-02-20T12:39:42.719Z,98581.31
2019-02-20T12:42:15.115Z,98590.94
2019-02-20T12:44:44.213Z,98583.22
2019-02-20T12:47:15.577Z,98576.47
2019-02-20T12:49:46.414Z,98550.73
2019-02-20T12:52:17.745Z,98576.20
2019-02-20T12:54:49.029Z,98573.17
2019-02-20T12:57:18.783Z,98572.11
2019-02-20T12:59:48.514Z,98577.35
2019-02-20T13:02:16.797Z,98573.92
2019-02-20T13:04:48.182Z,98555.91
2019-02-20T13:07:17.822Z,98559.98
2019-02-20T13:09:50.092Z,98559.19
2019-02-20T13:22:42.346Z,98564.42
2019-02-20T13:25:14.391Z,98563.27
2019-02-20T13:27:45.613Z,98558.55
2019-02-20T13:30:16.561Z,98561.44
2019-02-20T13:32:51.025Z,98555.80
2019-02-20T13:35:21.904Z,98556.06
2019-02-20T13:37:52.687Z,98553.59
2019-02-20T13:40:21.766Z,98547.34
2019-02-20T13:42:52.434Z,98546.55
2019-02-20T13:45:23.784Z,98548.45
2019-02-20T13:47:54.708Z,98538.39
2019-02-20T13:50:25.843Z,98539.35
2019-02-20T13:52:55.951Z,98544.13
2019-02-20T13:55:34.239Z,98544.22
2019-02-20T13:58:00.905Z,98533.03
2019-02-20T14:00:30.792Z,98540.39
2019-02-20T14:03:04.082Z,98538.67
2019-02-20T14:05:34.545Z,98535.42
2019-02-20T14:08:05.845Z,98533.65
2019-02-20T14:10:35.503Z,98534.32
2019-02-20T14:13:10.746Z,98530.48
2019-02-20T14:15:42.197Z,98534.17
2019-02-20T14:18:12.619Z,98530.65
2019-02-20T14:20:43.192Z,98524.31
2019-02-20T14:23:13.578Z,98534.34
2019-02-20T14:25:44.520Z,98529.81
2019-02-20T14:28:14.456Z,98524.67
2019-02-20T14:30:45.657Z,98523.24
2019-02-20T14:33:16.107Z,98519.38
2019-02-20T14:35:46.696Z,98527.81
2019-02-20T14:38:16.556Z,98522.83
2019-02-20T14:40:46.160Z,98533.17
2019-02-20T14:43:17.626Z,98532.92
2019-02-20T14:45:48.560Z,98526.67
2019-02-20T14:48:19.213Z,98524.36
2019-02-20T14:50:49.512Z,98527.31
2019-02-20T14:53:19.464Z,98530.17
2019-02-20T14:55:50.890Z,98530.22
2019-02-20T14:58:21.513Z,98530.83
2019-02-20T15:00:51.915Z,98527.58
2019-02-20T15:03:21.576Z,98535.73
2019-02-20T15:05:51.208Z,98537.37
2019-02-20T15:08:22.740Z,98528.16
2019-02-20T15:10:54.130Z,98530.44
2019-02-20T15:13:26.568Z,98537.13
2019-02-20T15:15:59.888Z,98534.69
2019-02-20T15:18:30.076Z,98530.87
2019-02-20T15:21:00.080Z,98535.73
2019-02-20T15:23:30.503Z,98540.46
2019-02-20T15:26:00.592Z,98540.46
2019-02-20T15:28:30.252Z,98537.66
2019-02-20T15:31:02.210Z,98540.23
2019-02-20T15:33:31.879Z,98540.97
2019-02-20T15:38:37.230Z,98534.36
2019-02-20T15:41:07.878Z,98534.92
2019-02-20T15:43:36.154Z,98541.69
2019-02-20T15:48:41.558Z,98530.11
2019-02-20T15:51:24.390Z,98535.55
2019-02-20T15:53:55.900Z,98547.88
2019-02-20T15:56:26.674Z,98542.25
2019-02-20T15:58:56.551Z,98540.83
2019-02-20T16:01:27.405Z,98538.44
2019-02-20T16:03:58.827Z,98532.95
2019-02-20T16:06:29.631Z,98535.13
2019-02-20T16:08:59.467Z,98535.69
2019-02-20T16:11:28.247Z,98543.30
2019-02-20T16:13:56.542Z,98542.68
2019-02-20T16:16:28.219Z,98541.91
2019-02-20T16:18:59.785Z,98541.80
2019-02-20T16:21:31.248Z,98548.86
2019-02-20T16:24:01.277Z,98546.27
2019-02-20T16:26:32.652Z,98545.81
2019-02-20T16:29:03.412Z,98547.97
2019-02-20T16:31:35.634Z,98545.19
2019-02-20T16:34:06.356Z,98550.38
2019-02-20T16:36:34.935Z,98545.23
2019-02-20T16:39:06.858Z,98549.09
2019-02-20T16:41:36.713Z,98546.58
2019-02-20T16:44:07.115Z,98545.20
2019-02-20T16:46:37.200Z,98525.52
2019-02-20T16:49:08.693Z,98525.52
2019-02-20T16:51:38.287Z,98547.95
2019-02-20T16:54:08.713Z,98539.83
2019-02-20T16:56:39.409Z,98546.85
2019-02-20T16:59:10.233Z,98550.50
2019-02-20T17:01:41.640Z,98557.12
2019-02-20T17:04:12.433Z,98556.77
2019-02-20T17:06:42.256Z,98555.64
2019-02-20T17:09:13.108Z,98561.48
2019-02-20T17:11:44.502Z,98567.41
2019-02-20T17:14:19.061Z,98564.89
2019-02-20T17:16:52.368Z,98569.52
2019-02-20T17:19:24.210Z,98570.23
2019-02-20T17:21:55.570Z,98577.72
2019-02-20T17:24:26.379Z,98581.09
2019-02-20T17:26:57.060Z,98584.07
2019-02-20T17:29:28.273Z,98584.07
2019-02-20T17:31:59.223Z,98585.99
2019-02-20T17:34:29.151Z,98590.69
2019-02-20T17:36:59.061Z,98597.05
2019-02-20T17:39:31.024Z,98597.05
2019-02-20T17:42:01.005Z,98592.97
2019-02-20T17:44:32.337Z,98591.13
2019-02-20T17:47:08.433Z,98593.17
2019-02-20T17:49:37.998Z,98601.31
2019-02-20T17:52:11.222Z,98602.88
2019-02-20T17:54:42.525Z,98609.44
2019-02-20T17:57:15.824Z,98614.06
2019-02-20T17:59:46.477Z,98621.55
2019-02-20T18:02:17.744Z,98618.39
2019-02-20T18:04:50.417Z,98613.87
2019-02-20T18:07:21.952Z,98614.48
2019-02-20T18:09:53.327Z,98620.63
2019-02-20T18:12:25.462Z,98616.66
2019-02-20T18:14:54.794Z,98621.42
2019-02-20T18:17:23.918Z,98620.32
2019-02-20T18:19:54.223Z,98621.73
2019-02-20T18:22:23.909Z,98619.30
2019-02-20T18:24:52.973Z,98621.52
2019-02-20T18:27:22.072Z,98627.05
2019-02-20T18:29:51.774Z,98621.48
2019-02-20T18:32:23.028Z,98622.66
2019-02-20T18:34:54.428Z,98624.61
2019-02-20T18:37:24.984Z,98626.60
2019-02-20T18:39:56.424Z,98630.72
2019-02-20T18:42:26.534Z,98636.52
2019-02-20T18:44:57.431Z,98637.16
2019-02-20T18:47:30.240Z,98641.48
2019-02-20T18:50:00.980Z,98643.99
2019-02-20T18:52:32.277Z,98644.13
2019-02-20T18:55:06.175Z,98650.61
2019-02-20T18:57:35.310Z,98652.59
2019-02-20T19:00:05.003Z,98653.21
2019-02-20T19:02:36.144Z,98653.55
2019-02-20T19:05:07.770Z,98655.16
2019-02-20T19:07:38.235Z,98655.23
2019-02-20T19:10:14.364Z,98658.61
2019-02-20T19:12:46.748Z,98654.53
2019-02-20T19:15:28.880Z,98652.91
2019-02-20T19:18:02.274Z,98658.61
2019-02-20T19:20:37.423Z,98657.14
2019-02-20T19:23:16.840Z,98656.80
2019-02-20T19:25:53.386Z,98657.97
2019-02-20T19:28:29.787Z,98660.53
2019-02-20T19:31:37.753Z,98660.05
2019-02-20T19:34:21.556Z,98661.17
2019-02-20T19:37:20.900Z,98662.79
2019-02-20T19:40:13.270Z,98669.64
2019-02-20T19:43:12.719Z,98673.42
2019-02-20T19:46:05.330Z,98677.29
2019-02-20T19:48:52.586Z,98678.05
2019-02-20T19:51:42.133Z,98671.75
2019-02-20T19:54:24.206Z,98678.94
2019-02-20T19:56:58.082Z,98682.62
2019-02-20T19:59:40.513Z,98685.89
2019-02-20T20:02:28.619Z,98686.79
2019-02-20T20:05:11.159Z,98695.62
2019-02-20T20:07:46.152Z,98687.88
2019-02-20T20:10:21.899Z,98689.64
2019-02-20T20:13:19.452Z,98681.44
2019-02-20T20:16:14.555Z,98691.03
2019-02-20T20:19:08.051Z,98693.16
2019-02-20T20:21:59.335Z,98701.00
2019-02-20T20:24:44.069Z,98707.66
2019-02-20T20:27:25.940Z,98689.82
2019-02-20T20:30:15.587Z,98689.00
2019-02-20T20:32:56.901Z,98695.77
2019-02-20T20:35:53.870Z,98702.38
2019-02-20T20:38:40.948Z,98699.36
2019-02-20T20:41:35.261Z,98701.08
2019-02-20T20:44:12.954Z,98701.53
2019-02-20T20:46:51.178Z,98706.88
2019-02-20T20:49:34.483Z,98706.36
2019-02-20T20:52:09.611Z,98704.54
2019-02-20T20:55:15.811Z,98711.46
2019-02-20T20:57:53.854Z,98710.41
2019-02-20T21:00:46.196Z,98714.84
2019-02-20T21:03:22.641Z,98719.24
2019-02-20T21:06:11.920Z,98719.19
2019-02-20T21:08:45.488Z,98718.95
2019-02-20T21:11:27.439Z,98720.14
2019-02-20T21:14:11.987Z,98711.33
2019-02-20T21:16:50.802Z,98715.44
2019-02-20T21:19:42.166Z,98716.23
2019-02-20T21:22:27.121Z,98712.96
2019-02-20T21:27:43.641Z,98714.98
2019-02-20T21:30:39.634Z,98725.16
2019-02-20T21:33:21.415Z,98727.39
2019-02-20T21:35:56.522Z,98723.05
2019-02-20T21:38:53.557Z,98717.62
2019-02-20T21:41:25.945Z,98720.59
2019-02-20T21:44:04.236Z,98722.14
2019-02-20T21:47:12.751Z,98720.73
2019-02-20T21:52:52.213Z,98724.41
2019-02-20T21:55:30.218Z,98724.76
2019-02-20T21:58:05.414Z,98723.17
2019-02-20T22:00:40.362Z,98728.35
2019-02-20T22:03:15.690Z,98724.61
2019-02-20T22:05:58.496Z,98727.59
2019-02-20T22:08:49.973Z,98728.36
2019-02-20T22:11:35.418Z,98729.78
2019-02-20T22:14:33.938Z,98722.36
2019-02-20T22:17:22.004Z,98724.45
2019-02-20T22:20:03.284Z,98722.62
2019-02-20T22:22:48.531Z,98721.73
2019-02-20T22:25:36.786Z,98732.06
2019-02-20T22:28:37.893Z,98732.06
2019-02-20T22:31:40.660Z,98729.09
2019-02-20T22:34:18.580Z,98732.08
2019-02-20T22:37:09.761Z,98732.68
2019-02-20T22:40:04.023Z,98731.81
2019-02-20T22:42:40.295Z,98726.65
2019-02-20T22:45:16.330Z,98729.33
2019-02-20T22:47:57.210Z,98728.73
2019-02-20T22:50:55.373Z,98727.70
2019-02-20T22:53:28.298Z,98733.73
2019-02-20T22:56:12.583Z,98730.83
2019-02-20T22:58:54.032Z,98733.27
2019-02-20T23:01:41.328Z,98731.44
2019-02-20T23:04:14.859Z,98738.50
2019-02-20T23:06:48.237Z,98737.36
2019-02-20T23:09:36.438Z,98741.53
2019-02-20T23:12:09.968Z,98739.39
2019-02-20T23:14:58.931Z,98741.30
2019-02-20T23:17:30.413Z,98747.36
2019-02-20T23:20:00.842Z,98747.66
2019-02-20T23:22:31.252Z,98745.23
2019-02-20T23:25:03.283Z,98748.31
2019-02-20T23:27:33.739Z,98752.47
2019-02-20T23:30:12.535Z,98764.28
2019-02-20T23:32:38.161Z,98757.22
2019-02-20T23:35:09.777Z,98757.30
2019-02-20T23:37:40.465Z,98754.28
2019-02-20T23:40:12.372Z,98749.41
2019-02-20T23:42:44.752Z,98755.70
2019-02-20T23:45:14.629Z,98757.31
2019-02-20T23:47:48.841Z,98751.02
2019-02-20T23:50:18.986Z,98752.88
2019-02-20T23:52:50.036Z,98753.65
2019-02-20T23:55:21.399Z,98759.37
2019-02-20T23:57:52.752Z,98756.88
